sensor_id;sensor_type;location;lat;lon;timestamp;P1;durP1;ratioP1;P2;durP2;ratioP2
8066;SDS011;4076;48.076;9.118;2023-06-22T00:02:08;10.30;;;6.53;;
8066;SDS011;4076;48.076;9.118;2023-06-22T00:04:33;12.50;;;6.00;;
8066;SDS011;4076;48.076;9.118;2023-06-22T00:06:59;11.27;;;7.60;;
8066;SDS011;4076;48.076;9.118;2023-06-22T00:09:25;9.97;;;5.50;;
8066;SDS011;4076;48.076;9.118;2023-06-22T00:11:50;11.70;;;5.83;;
8066;SDS011;4076;48.076;9.118;2023-06-22T00:14:16;10.10;;;5.23;;
8066;SDS011;4076;48.076;9.118;2023-06-22T00:16:41;12.40;;;4.90;;
8066;SDS011;4076;48.076;9.118;2023-06-22T00:19:07;10.97;;;5.70;;
8066;SDS011;4076;48.076;9.118;2023-06-22T00:21:35;11.57;;;5.30;;
8066;SDS011;4076;48.076;9.118;2023-06-22T00:24:02;10.57;;;7.13;;
8066;SDS011;4076;48.076;9.118;2023-06-22T00:26:28;10.67;;;5.57;;
8066;SDS011;4076;48.076;9.118;2023-06-22T00:28:54;10.90;;;6.23;;
8066;SDS011;4076;48.076;9.118;2023-06-22T00:31:20;10.10;;;5.60;;
8066;SDS011;4076;48.076;9.118;2023-06-22T00:33:45;9.57;;;5.33;;
8066;SDS011;4076;48.076;9.118;2023-06-22T00:36:11;12.40;;;5.30;;
8066;SDS011;4076;48.076;9.118;2023-06-22T00:38:41;9.83;;;5.43;;
8066;SDS011;4076;48.076;9.118;2023-06-22T00:41:06;10.27;;;5.80;;
8066;SDS011;4076;48.076;9.118;2023-06-22T00:43:32;8.50;;;5.33;;
8066;SDS011;4076;48.076;9.118;2023-06-22T00:45:58;10.23;;;5.20;;
8066;SDS011;4076;48.076;9.118;2023-06-22T00:48:23;10.90;;;6.20;;
8066;SDS011;4076;48.076;9.118;2023-06-22T00:50:50;14.13;;;6.57;;
8066;SDS011;4076;48.076;9.118;2023-06-22T00:53:18;12.57;;;6.60;;
8066;SDS011;4076;48.076;9.118;2023-06-22T00:55:44;12.40;;;7.93;;
8066;SDS011;4076;48.076;9.118;2023-06-22T00:58:12;9.87;;;6.23;;
8066;SDS011;4076;48.076;9.118;2023-06-22T01:00:38;10.50;;;6.20;;
8066;SDS011;4076;48.076;9.118;2023-06-22T01:03:04;8.53;;;4.80;;
8066;SDS011;4076;48.076;9.118;2023-06-22T01:05:34;15.67;;;5.37;;
8066;SDS011;4076;48.076;9.118;2023-06-22T01:08:04;12.87;;;6.00;;
8066;SDS011;4076;48.076;9.118;2023-06-22T01:10:55;8.50;;;4.53;;
8066;SDS011;4076;48.076;9.118;2023-06-22T01:16:28;9.63;;;6.03;;
8066;SDS011;4076;48.076;9.118;2023-06-22T01:18:54;10.77;;;4.80;;
8066;SDS011;4076;48.076;9.118;2023-06-22T01:21:23;17.73;;;5.70;;
8066;SDS011;4076;48.076;9.118;2023-06-22T01:27:02;17.47;;;5.57;;
8066;SDS011;4076;48.076;9.118;2023-06-22T01:29:39;9.03;;;4.77;;
8066;SDS011;4076;48.076;9.118;2023-06-22T01:32:05;10.50;;;4.70;;
8066;SDS011;4076;48.076;9.118;2023-06-22T01:34:32;10.40;;;4.67;;
8066;SDS011;4076;48.076;9.118;2023-06-22T01:36:59;11.77;;;6.20;;
8066;SDS011;4076;48.076;9.118;2023-06-22T01:39:27;13.00;;;7.37;;
8066;SDS011;4076;48.076;9.118;2023-06-22T01:41:53;8.63;;;4.87;;
8066;SDS011;4076;48.076;9.118;2023-06-22T01:44:19;8.33;;;4.60;;
8066;SDS011;4076;48.076;9.118;2023-06-22T01:46:46;9.77;;;5.60;;
8066;SDS011;4076;48.076;9.118;2023-06-22T01:49:14;14.40;;;5.73;;
8066;SDS011;4076;48.076;9.118;2023-06-22T01:51:40;12.17;;;5.80;;
8066;SDS011;4076;48.076;9.118;2023-06-22T01:54:06;11.90;;;5.60;;
8066;SDS011;4076;48.076;9.118;2023-06-22T01:56:33;9.20;;;5.33;;
8066;SDS011;4076;48.076;9.118;2023-06-22T01:59:00;10.60;;;5.37;;
8066;SDS011;4076;48.076;9.118;2023-06-22T02:01:31;9.40;;;4.80;;
8066;SDS011;4076;48.076;9.118;2023-06-22T02:04:06;11.90;;;6.30;;
8066;SDS011;4076;48.076;9.118;2023-06-22T02:06:46;10.50;;;5.60;;
8066;SDS011;4076;48.076;9.118;2023-06-22T02:09:19;12.27;;;5.20;;
8066;SDS011;4076;48.076;9.118;2023-06-22T02:11:52;9.80;;;5.00;;
8066;SDS011;4076;48.076;9.118;2023-06-22T02:14:35;9.57;;;5.33;;
8066;SDS011;4076;48.076;9.118;2023-06-22T02:17:10;8.73;;;4.00;;
8066;SDS011;4076;48.076;9.118;2023-06-22T02:19:44;8.83;;;4.00;;
8066;SDS011;4076;48.076;9.118;2023-06-22T02:22:21;9.00;;;5.00;;
8066;SDS011;4076;48.076;9.118;2023-06-22T02:24:57;15.27;;;9.00;;
8066;SDS011;4076;48.076;9.118;2023-06-22T02:27:28;9.00;;;5.30;;
8066;SDS011;4076;48.076;9.118;2023-06-22T02:30:00;16.90;;;5.80;;
8066;SDS011;4076;48.076;9.118;2023-06-22T02:32:42;12.30;;;5.10;;
8066;SDS011;4076;48.076;9.118;2023-06-22T02:35:17;11.13;;;5.50;;
8066;SDS011;4076;48.076;9.118;2023-06-22T02:41:08;8.17;;;4.40;;
8066;SDS011;4076;48.076;9.118;2023-06-22T02:43:50;9.97;;;5.27;;
8066;SDS011;4076;48.076;9.118;2023-06-22T02:46:26;11.23;;;5.57;;
8066;SDS011;4076;48.076;9.118;2023-06-22T02:49:03;10.33;;;6.30;;
8066;SDS011;4076;48.076;9.118;2023-06-22T02:51:46;8.63;;;5.43;;
8066;SDS011;4076;48.076;9.118;2023-06-22T02:54:26;8.57;;;4.13;;
8066;SDS011;4076;48.076;9.118;2023-06-22T02:57:00;14.40;;;6.00;;
8066;SDS011;4076;48.076;9.118;2023-06-22T02:59:43;13.07;;;7.00;;
8066;SDS011;4076;48.076;9.118;2023-06-22T03:02:15;11.27;;;5.70;;
8066;SDS011;4076;48.076;9.118;2023-06-22T03:11:43;9.10;;;3.80;;
8066;SDS011;4076;48.076;9.118;2023-06-22T03:27:27;10.20;;;5.20;;
8066;SDS011;4076;48.076;9.118;2023-06-22T03:30:04;8.03;;;4.37;;
8066;SDS011;4076;48.076;9.118;2023-06-22T03:32:44;8.40;;;4.60;;
8066;SDS011;4076;48.076;9.118;2023-06-22T03:35:22;9.57;;;4.97;;
8066;SDS011;4076;48.076;9.118;2023-06-22T03:38:06;10.73;;;4.97;;
8066;SDS011;4076;48.076;9.118;2023-06-22T03:40:40;10.10;;;5.40;;
8066;SDS011;4076;48.076;9.118;2023-06-22T03:43:06;11.43;;;5.17;;
8066;SDS011;4076;48.076;9.118;2023-06-22T03:45:31;9.80;;;5.57;;
8066;SDS011;4076;48.076;9.118;2023-06-22T03:47:57;9.10;;;4.77;;
8066;SDS011;4076;48.076;9.118;2023-06-22T03:50:22;13.20;;;5.50;;
8066;SDS011;4076;48.076;9.118;2023-06-22T03:52:48;11.20;;;5.60;;
8066;SDS011;4076;48.076;9.118;2023-06-22T03:55:13;12.97;;;5.47;;
8066;SDS011;4076;48.076;9.118;2023-06-22T03:57:39;8.63;;;5.00;;
8066;SDS011;4076;48.076;9.118;2023-06-22T04:00:05;10.60;;;4.70;;
8066;SDS011;4076;48.076;9.118;2023-06-22T04:02:31;8.63;;;4.63;;
8066;SDS011;4076;48.076;9.118;2023-06-22T04:04:56;9.90;;;4.57;;
8066;SDS011;4076;48.076;9.118;2023-06-22T04:07:22;8.67;;;5.37;;
8066;SDS011;4076;48.076;9.118;2023-06-22T04:09:47;10.07;;;5.30;;
8066;SDS011;4076;48.076;9.118;2023-06-22T04:12:13;10.77;;;6.37;;
8066;SDS011;4076;48.076;9.118;2023-06-22T04:14:39;10.83;;;6.60;;
8066;SDS011;4076;48.076;9.118;2023-06-22T04:17:04;11.50;;;4.93;;
8066;SDS011;4076;48.076;9.118;2023-06-22T04:19:30;13.83;;;5.23;;
8066;SDS011;4076;48.076;9.118;2023-06-22T04:21:56;10.37;;;5.37;;
8066;SDS011;4076;48.076;9.118;2023-06-22T04:24:21;13.30;;;5.30;;
8066;SDS011;4076;48.076;9.118;2023-06-22T04:26:47;8.63;;;4.90;;
8066;SDS011;4076;48.076;9.118;2023-06-22T04:29:13;9.90;;;4.80;;
8066;SDS011;4076;48.076;9.118;2023-06-22T04:31:38;11.57;;;6.30;;
8066;SDS011;4076;48.076;9.118;2023-06-22T04:34:04;12.70;;;6.50;;
8066;SDS011;4076;48.076;9.118;2023-06-22T04:39:09;9.13;;;5.67;;
8066;SDS011;4076;48.076;9.118;2023-06-22T04:41:36;12.13;;;5.90;;
8066;SDS011;4076;48.076;9.118;2023-06-22T04:44:09;10.77;;;5.93;;
8066;SDS011;4076;48.076;9.118;2023-06-22T04:46:38;9.83;;;5.47;;
8066;SDS011;4076;48.076;9.118;2023-06-22T04:49:08;9.83;;;5.93;;
8066;SDS011;4076;48.076;9.118;2023-06-22T04:51:40;13.33;;;5.80;;
8066;SDS011;4076;48.076;9.118;2023-06-22T04:54:07;11.70;;;6.53;;
8066;SDS011;4076;48.076;9.118;2023-06-22T04:56:33;13.80;;;6.07;;
8066;SDS011;4076;48.076;9.118;2023-06-22T04:58:59;9.10;;;5.70;;
8066;SDS011;4076;48.076;9.118;2023-06-22T05:01:25;11.90;;;5.40;;
8066;SDS011;4076;48.076;9.118;2023-06-22T05:03:51;10.13;;;5.77;;
8066;SDS011;4076;48.076;9.118;2023-06-22T05:06:23;9.40;;;5.03;;
8066;SDS011;4076;48.076;9.118;2023-06-22T05:08:58;9.30;;;5.57;;
8066;SDS011;4076;48.076;9.118;2023-06-22T05:11:27;13.83;;;4.70;;
8066;SDS011;4076;48.076;9.118;2023-06-22T05:13:53;11.50;;;6.70;;
8066;SDS011;4076;48.076;9.118;2023-06-22T05:16:19;9.07;;;5.70;;
8066;SDS011;4076;48.076;9.118;2023-06-22T05:18:52;12.17;;;5.80;;
8066;SDS011;4076;48.076;9.118;2023-06-22T05:21:21;12.90;;;8.50;;
8066;SDS011;4076;48.076;9.118;2023-06-22T05:23:48;11.33;;;6.50;;
8066;SDS011;4076;48.076;9.118;2023-06-22T05:26:13;11.30;;;6.37;;
8066;SDS011;4076;48.076;9.118;2023-06-22T05:28:39;9.03;;;5.10;;
8066;SDS011;4076;48.076;9.118;2023-06-22T05:31:05;9.20;;;5.50;;
8066;SDS011;4076;48.076;9.118;2023-06-22T05:33:30;9.53;;;5.30;;
8066;SDS011;4076;48.076;9.118;2023-06-22T05:35:56;9.43;;;4.73;;
8066;SDS011;4076;48.076;9.118;2023-06-22T05:38:21;9.53;;;5.60;;
8066;SDS011;4076;48.076;9.118;2023-06-22T05:40:47;12.57;;;6.30;;
8066;SDS011;4076;48.076;9.118;2023-06-22T05:43:13;9.07;;;5.70;;
8066;SDS011;4076;48.076;9.118;2023-06-22T05:45:38;7.97;;;5.33;;
8066;SDS011;4076;48.076;9.118;2023-06-22T05:48:04;10.27;;;5.20;;
8066;SDS011;4076;48.076;9.118;2023-06-22T05:50:30;10.30;;;5.43;;
8066;SDS011;4076;48.076;9.118;2023-06-22T05:52:55;11.00;;;5.33;;
8066;SDS011;4076;48.076;9.118;2023-06-22T05:55:21;10.23;;;7.03;;
8066;SDS011;4076;48.076;9.118;2023-06-22T05:57:47;11.47;;;6.30;;
8066;SDS011;4076;48.076;9.118;2023-06-22T06:00:12;9.23;;;5.07;;
8066;SDS011;4076;48.076;9.118;2023-06-22T06:02:40;9.97;;;5.20;;
8066;SDS011;4076;48.076;9.118;2023-06-22T06:05:08;22.73;;;7.10;;
8066;SDS011;4076;48.076;9.118;2023-06-22T06:07:39;10.57;;;6.60;;
8066;SDS011;4076;48.076;9.118;2023-06-22T06:10:05;12.63;;;7.83;;
8066;SDS011;4076;48.076;9.118;2023-06-22T06:12:31;12.67;;;7.60;;
8066;SDS011;4076;48.076;9.118;2023-06-22T06:14:57;12.57;;;7.60;;
8066;SDS011;4076;48.076;9.118;2023-06-22T06:17:23;13.07;;;8.37;;
8066;SDS011;4076;48.076;9.118;2023-06-22T06:19:48;13.37;;;7.17;;
8066;SDS011;4076;48.076;9.118;2023-06-22T06:22:14;10.73;;;6.97;;
8066;SDS011;4076;48.076;9.118;2023-06-22T06:24:40;10.47;;;6.73;;
8066;SDS011;4076;48.076;9.118;2023-06-22T06:27:05;11.80;;;7.53;;
8066;SDS011;4076;48.076;9.118;2023-06-22T06:29:31;12.70;;;7.23;;
8066;SDS011;4076;48.076;9.118;2023-06-22T06:31:57;8.67;;;5.63;;
8066;SDS011;4076;48.076;9.118;2023-06-22T06:34:23;11.83;;;7.23;;
8066;SDS011;4076;48.076;9.118;2023-06-22T06:36:48;13.40;;;7.73;;
8066;SDS011;4076;48.076;9.118;2023-06-22T06:39:14;15.60;;;10.23;;
8066;SDS011;4076;48.076;9.118;2023-06-22T06:41:41;16.50;;;6.30;;
8066;SDS011;4076;48.076;9.118;2023-06-22T06:44:06;12.60;;;5.93;;
8066;SDS011;4076;48.076;9.118;2023-06-22T06:46:32;16.07;;;7.27;;
8066;SDS011;4076;48.076;9.118;2023-06-22T06:48:57;11.03;;;6.47;;
8066;SDS011;4076;48.076;9.118;2023-06-22T06:51:23;11.63;;;6.83;;
8066;SDS011;4076;48.076;9.118;2023-06-22T06:53:49;16.40;;;9.27;;
8066;SDS011;4076;48.076;9.118;2023-06-22T06:56:14;11.00;;;8.07;;
8066;SDS011;4076;48.076;9.118;2023-06-22T06:58:41;10.50;;;6.57;;
8066;SDS011;4076;48.076;9.118;2023-06-22T07:01:11;10.73;;;6.93;;
8066;SDS011;4076;48.076;9.118;2023-06-22T07:03:37;9.93;;;6.67;;
8066;SDS011;4076;48.076;9.118;2023-06-22T07:06:03;11.80;;;7.37;;
8066;SDS011;4076;48.076;9.118;2023-06-22T07:08:29;12.83;;;8.40;;
8066;SDS011;4076;48.076;9.118;2023-06-22T07:10:54;13.00;;;6.97;;
8066;SDS011;4076;48.076;9.118;2023-06-22T07:13:20;12.03;;;7.80;;
8066;SDS011;4076;48.076;9.118;2023-06-22T07:15:46;11.67;;;6.63;;
8066;SDS011;4076;48.076;9.118;2023-06-22T07:18:12;11.00;;;7.20;;
8066;SDS011;4076;48.076;9.118;2023-06-22T07:20:37;9.30;;;6.47;;
8066;SDS011;4076;48.076;9.118;2023-06-22T07:23:04;9.27;;;6.40;;
8066;SDS011;4076;48.076;9.118;2023-06-22T07:25:30;11.50;;;6.80;;
8066;SDS011;4076;48.076;9.118;2023-06-22T07:28:05;10.30;;;7.00;;
8066;SDS011;4076;48.076;9.118;2023-06-22T07:30:32;12.67;;;9.27;;
8066;SDS011;4076;48.076;9.118;2023-06-22T07:32:59;10.30;;;7.40;;
8066;SDS011;4076;48.076;9.118;2023-06-22T07:35:28;8.90;;;7.30;;
8066;SDS011;4076;48.076;9.118;2023-06-22T07:37:57;44.40;;;7.90;;
8066;SDS011;4076;48.076;9.118;2023-06-22T07:40:23;11.57;;;7.27;;
8066;SDS011;4076;48.076;9.118;2023-06-22T07:42:48;10.47;;;7.73;;
8066;SDS011;4076;48.076;9.118;2023-06-22T07:45:16;10.00;;;6.33;;
8066;SDS011;4076;48.076;9.118;2023-06-22T07:47:42;11.40;;;5.87;;
8066;SDS011;4076;48.076;9.118;2023-06-22T07:50:08;8.97;;;7.10;;
8066;SDS011;4076;48.076;9.118;2023-06-22T07:52:34;12.73;;;7.80;;
8066;SDS011;4076;48.076;9.118;2023-06-22T07:55:00;11.93;;;7.77;;
8066;SDS011;4076;48.076;9.118;2023-06-22T07:57:27;8.57;;;6.80;;
8066;SDS011;4076;48.076;9.118;2023-06-22T07:59:58;8.67;;;6.20;;
8066;SDS011;4076;48.076;9.118;2023-06-22T08:02:25;9.10;;;6.50;;
8066;SDS011;4076;48.076;9.118;2023-06-22T08:04:51;7.40;;;5.57;;
8066;SDS011;4076;48.076;9.118;2023-06-22T08:07:16;8.63;;;7.33;;
8066;SDS011;4076;48.076;9.118;2023-06-22T08:09:47;6.83;;;5.17;;
8066;SDS011;4076;48.076;9.118;2023-06-22T08:12:14;6.60;;;5.63;;
8066;SDS011;4076;48.076;9.118;2023-06-22T08:14:41;7.90;;;5.77;;
8066;SDS011;4076;48.076;9.118;2023-06-22T08:17:08;5.03;;;4.53;;
8066;SDS011;4076;48.076;9.118;2023-06-22T08:19:34;5.57;;;5.07;;
8066;SDS011;4076;48.076;9.118;2023-06-22T08:22:00;5.77;;;4.97;;
8066;SDS011;4076;48.076;9.118;2023-06-22T08:24:25;6.40;;;4.80;;
8066;SDS011;4076;48.076;9.118;2023-06-22T08:26:55;8.63;;;6.07;;
8066;SDS011;4076;48.076;9.118;2023-06-22T08:29:20;6.93;;;6.23;;
8066;SDS011;4076;48.076;9.118;2023-06-22T08:31:46;7.07;;;6.37;;
8066;SDS011;4076;48.076;9.118;2023-06-22T08:34:12;10.47;;;6.87;;
8066;SDS011;4076;48.076;9.118;2023-06-22T08:36:37;9.90;;;7.90;;
8066;SDS011;4076;48.076;9.118;2023-06-22T08:39:06;6.00;;;5.40;;
8066;SDS011;4076;48.076;9.118;2023-06-22T08:41:33;5.60;;;5.10;;
8066;SDS011;4076;48.076;9.118;2023-06-22T08:43:58;6.37;;;5.77;;
8066;SDS011;4076;48.076;9.118;2023-06-22T08:46:24;7.80;;;6.30;;
8066;SDS011;4076;48.076;9.118;2023-06-22T08:48:55;6.87;;;6.27;;
8066;SDS011;4076;48.076;9.118;2023-06-22T08:51:22;7.40;;;6.70;;
8066;SDS011;4076;48.076;9.118;2023-06-22T08:53:48;7.63;;;6.93;;
8066;SDS011;4076;48.076;9.118;2023-06-22T08:56:14;7.40;;;6.70;;
8066;SDS011;4076;48.076;9.118;2023-06-22T08:58:40;7.40;;;6.90;;
8066;SDS011;4076;48.076;9.118;2023-06-22T09:01:05;6.57;;;5.97;;
8066;SDS011;4076;48.076;9.118;2023-06-22T09:03:31;7.23;;;6.73;;
8066;SDS011;4076;48.076;9.118;2023-06-22T09:05:58;6.43;;;5.93;;
8066;SDS011;4076;48.076;9.118;2023-06-22T09:08:23;8.33;;;7.63;;
8066;SDS011;4076;48.076;9.118;2023-06-22T09:10:49;6.73;;;5.93;;
8066;SDS011;4076;48.076;9.118;2023-06-22T09:13:16;8.13;;;7.40;;
8066;SDS011;4076;48.076;9.118;2023-06-22T09:15:41;6.97;;;6.33;;
8066;SDS011;4076;48.076;9.118;2023-06-22T09:18:09;7.00;;;6.40;;
8066;SDS011;4076;48.076;9.118;2023-06-22T09:20:36;6.93;;;6.23;;
8066;SDS011;4076;48.076;9.118;2023-06-22T09:23:01;8.40;;;7.65;;
8066;SDS011;4076;48.076;9.118;2023-06-22T09:25:27;9.95;;;8.10;;
8066;SDS011;4076;48.076;9.118;2023-06-22T09:27:52;8.20;;;7.68;;
8066;SDS011;4076;48.076;9.118;2023-06-22T09:30:18;11.02;;;9.80;;
8066;SDS011;4076;48.076;9.118;2023-06-22T09:32:44;9.18;;;8.68;;
8066;SDS011;4076;48.076;9.118;2023-06-22T09:35:10;7.43;;;6.82;;
8066;SDS011;4076;48.076;9.118;2023-06-22T09:37:37;7.70;;;7.10;;
8066;SDS011;4076;48.076;9.118;2023-06-22T09:40:03;7.80;;;7.13;;
8066;SDS011;4076;48.076;9.118;2023-06-22T09:42:33;8.83;;;8.17;;
8066;SDS011;4076;48.076;9.118;2023-06-22T09:44:59;12.23;;;8.40;;
8066;SDS011;4076;48.076;9.118;2023-06-22T09:47:26;8.97;;;8.20;;
8066;SDS011;4076;48.076;9.118;2023-06-22T09:49:52;12.77;;;11.77;;
8066;SDS011;4076;48.076;9.118;2023-06-22T09:52:20;10.77;;;8.47;;
8066;SDS011;4076;48.076;9.118;2023-06-22T09:54:46;7.97;;;7.17;;
8066;SDS011;4076;48.076;9.118;2023-06-22T09:57:12;9.37;;;8.57;;
8066;SDS011;4076;48.076;9.118;2023-06-22T09:59:37;9.63;;;8.60;;
8066;SDS011;4076;48.076;9.118;2023-06-22T10:02:05;10.27;;;8.97;;
8066;SDS011;4076;48.076;9.118;2023-06-22T10:04:31;9.63;;;8.73;;
8066;SDS011;4076;48.076;9.118;2023-06-22T10:06:57;8.70;;;8.00;;
8066;SDS011;4076;48.076;9.118;2023-06-22T10:09:23;7.00;;;6.40;;
8066;SDS011;4076;48.076;9.118;2023-06-22T10:11:49;10.30;;;7.63;;
8066;SDS011;4076;48.076;9.118;2023-06-22T10:14:14;8.40;;;7.50;;
8066;SDS011;4076;48.076;9.118;2023-06-22T10:16:40;9.40;;;7.10;;
8066;SDS011;4076;48.076;9.118;2023-06-22T10:19:06;8.77;;;7.87;;
8066;SDS011;4076;48.076;9.118;2023-06-22T10:21:32;11.30;;;8.13;;
8066;SDS011;4076;48.076;9.118;2023-06-22T10:23:58;8.53;;;7.73;;
8066;SDS011;4076;48.076;9.118;2023-06-22T10:26:26;8.93;;;7.83;;
8066;SDS011;4076;48.076;9.118;2023-06-22T10:28:54;7.70;;;6.97;;
8066;SDS011;4076;48.076;9.118;2023-06-22T10:31:19;8.27;;;7.43;;
8066;SDS011;4076;48.076;9.118;2023-06-22T10:33:45;8.33;;;7.63;;
8066;SDS011;4076;48.076;9.118;2023-06-22T10:36:11;7.47;;;6.87;;
8066;SDS011;4076;48.076;9.118;2023-06-22T10:38:36;15.30;;;8.17;;
8066;SDS011;4076;48.076;9.118;2023-06-22T10:41:02;8.50;;;7.70;;
8066;SDS011;4076;48.076;9.118;2023-06-22T10:43:27;9.07;;;6.43;;
8066;SDS011;4076;48.076;9.118;2023-06-22T10:45:53;9.10;;;5.43;;
8066;SDS011;4076;48.076;9.118;2023-06-22T10:48:19;7.30;;;6.60;;
8066;SDS011;4076;48.076;9.118;2023-06-22T10:50:44;9.43;;;6.93;;
8066;SDS011;4076;48.076;9.118;2023-06-22T10:53:11;7.30;;;6.60;;
8066;SDS011;4076;48.076;9.118;2023-06-22T10:55:36;8.70;;;7.90;;
8066;SDS011;4076;48.076;9.118;2023-06-22T10:58:02;6.73;;;5.87;;
8066;SDS011;4076;48.076;9.118;2023-06-22T11:00:28;6.90;;;6.07;;
8066;SDS011;4076;48.076;9.118;2023-06-22T11:02:53;7.50;;;6.70;;
8066;SDS011;4076;48.076;9.118;2023-06-22T11:05:19;11.83;;;7.50;;
8066;SDS011;4076;48.076;9.118;2023-06-22T11:07:45;10.30;;;6.90;;
8066;SDS011;4076;48.076;9.118;2023-06-22T11:10:11;7.40;;;6.20;;
8066;SDS011;4076;48.076;9.118;2023-06-22T11:12:38;8.70;;;7.90;;
8066;SDS011;4076;48.076;9.118;2023-06-22T11:15:03;7.53;;;5.50;;
8066;SDS011;4076;48.076;9.118;2023-06-22T11:17:29;12.00;;;8.73;;
8066;SDS011;4076;48.076;9.118;2023-06-22T11:19:55;9.47;;;8.37;;
8066;SDS011;4076;48.076;9.118;2023-06-22T11:22:21;7.73;;;6.60;;
8066;SDS011;4076;48.076;9.118;2023-06-22T11:24:46;9.40;;;8.40;;
8066;SDS011;4076;48.076;9.118;2023-06-22T11:27:12;7.93;;;6.60;;
8066;SDS011;4076;48.076;9.118;2023-06-22T11:29:37;8.53;;;7.63;;
8066;SDS011;4076;48.076;9.118;2023-06-22T11:32:05;7.23;;;6.50;;
8066;SDS011;4076;48.076;9.118;2023-06-22T11:34:31;8.37;;;6.40;;
8066;SDS011;4076;48.076;9.118;2023-06-22T11:36:57;8.53;;;7.63;;
8066;SDS011;4076;48.076;9.118;2023-06-22T11:39:23;7.30;;;6.60;;
8066;SDS011;4076;48.076;9.118;2023-06-22T11:41:48;8.23;;;7.30;;
8066;SDS011;4076;48.076;9.118;2023-06-22T11:44:14;9.53;;;6.80;;
8066;SDS011;4076;48.076;9.118;2023-06-22T11:46:39;9.47;;;7.27;;
8066;SDS011;4076;48.076;9.118;2023-06-22T11:49:05;10.67;;;8.30;;
8066;SDS011;4076;48.076;9.118;2023-06-22T11:51:30;10.00;;;8.13;;
8066;SDS011;4076;48.076;9.118;2023-06-22T11:53:56;11.50;;;7.60;;
8066;SDS011;4076;48.076;9.118;2023-06-22T11:56:23;8.53;;;7.73;;
8066;SDS011;4076;48.076;9.118;2023-06-22T11:58:48;9.67;;;7.33;;
8066;SDS011;4076;48.076;9.118;2023-06-22T12:01:14;8.63;;;6.73;;
8066;SDS011;4076;48.076;9.118;2023-06-22T12:03:40;8.87;;;7.07;;
8066;SDS011;4076;48.076;9.118;2023-06-22T12:06:08;7.43;;;6.67;;
8066;SDS011;4076;48.076;9.118;2023-06-22T12:08:34;8.67;;;6.70;;
8066;SDS011;4076;48.076;9.118;2023-06-22T12:10:59;10.93;;;7.80;;
8066;SDS011;4076;48.076;9.118;2023-06-22T12:13:25;8.93;;;8.10;;
8066;SDS011;4076;48.076;9.118;2023-06-22T12:15:50;8.63;;;6.60;;
8066;SDS011;4076;48.076;9.118;2023-06-22T12:18:17;9.20;;;8.30;;
8066;SDS011;4076;48.076;9.118;2023-06-22T12:20:45;12.20;;;7.20;;
8066;SDS011;4076;48.076;9.118;2023-06-22T12:23:11;7.83;;;6.83;;
8066;SDS011;4076;48.076;9.118;2023-06-22T12:25:39;9.53;;;8.63;;
8066;SDS011;4076;48.076;9.118;2023-06-22T12:28:05;9.30;;;6.43;;
8066;SDS011;4076;48.076;9.118;2023-06-22T12:30:31;8.03;;;7.23;;
8066;SDS011;4076;48.076;9.118;2023-06-22T12:32:57;9.20;;;7.27;;
8066;SDS011;4076;48.076;9.118;2023-06-22T12:35:23;8.13;;;6.23;;
8066;SDS011;4076;48.076;9.118;2023-06-22T12:37:49;8.90;;;7.70;;
8066;SDS011;4076;48.076;9.118;2023-06-22T12:40:15;7.70;;;6.83;;
8066;SDS011;4076;48.076;9.118;2023-06-22T12:42:40;11.40;;;8.47;;
8066;SDS011;4076;48.076;9.118;2023-06-22T12:45:07;6.30;;;5.70;;
8066;SDS011;4076;48.076;9.118;2023-06-22T12:47:33;10.03;;;8.10;;
8066;SDS011;4076;48.076;9.118;2023-06-22T12:49:59;9.43;;;8.40;;
8066;SDS011;4076;48.076;9.118;2023-06-22T12:52:24;7.07;;;6.27;;
8066;SDS011;4076;48.076;9.118;2023-06-22T12:54:50;9.53;;;8.63;;
8066;SDS011;4076;48.076;9.118;2023-06-22T12:57:17;8.47;;;7.63;;
8066;SDS011;4076;48.076;9.118;2023-06-22T12:59:44;14.03;;;8.13;;
8066;SDS011;4076;48.076;9.118;2023-06-22T13:02:10;10.73;;;7.80;;
8066;SDS011;4076;48.076;9.118;2023-06-22T13:04:35;7.90;;;6.60;;
8066;SDS011;4076;48.076;9.118;2023-06-22T13:07:01;10.30;;;6.97;;
8066;SDS011;4076;48.076;9.118;2023-06-22T13:09:26;7.47;;;6.70;;
8066;SDS011;4076;48.076;9.118;2023-06-22T13:11:52;8.70;;;7.90;;
8066;SDS011;4076;48.076;9.118;2023-06-22T13:14:18;10.10;;;8.40;;
8066;SDS011;4076;48.076;9.118;2023-06-22T13:16:43;9.30;;;8.47;;
8066;SDS011;4076;48.076;9.118;2023-06-22T13:19:09;9.03;;;7.30;;
8066;SDS011;4076;48.076;9.118;2023-06-22T13:21:35;8.83;;;7.17;;
8066;SDS011;4076;48.076;9.118;2023-06-22T13:24:00;7.63;;;6.80;;
8066;SDS011;4076;48.076;9.118;2023-06-22T13:26:26;8.63;;;7.47;;
8066;SDS011;4076;48.076;9.118;2023-06-22T13:28:53;9.97;;;7.80;;
8066;SDS011;4076;48.076;9.118;2023-06-22T13:31:19;9.83;;;8.33;;
8066;SDS011;4076;48.076;9.118;2023-06-22T13:33:45;8.67;;;7.77;;
8066;SDS011;4076;48.076;9.118;2023-06-22T13:36:12;9.53;;;8.53;;
8066;SDS011;4076;48.076;9.118;2023-06-22T13:38:38;9.70;;;6.67;;
8066;SDS011;4076;48.076;9.118;2023-06-22T13:41:04;8.90;;;6.67;;
8066;SDS011;4076;48.076;9.118;2023-06-22T13:43:30;7.67;;;6.90;;
8066;SDS011;4076;48.076;9.118;2023-06-22T13:45:56;7.63;;;6.80;;
8066;SDS011;4076;48.076;9.118;2023-06-22T13:48:22;9.23;;;8.13;;
8066;SDS011;4076;48.076;9.118;2023-06-22T13:50:50;11.70;;;5.70;;
8066;SDS011;4076;48.076;9.118;2023-06-22T13:53:16;6.50;;;4.90;;
8066;SDS011;4076;48.076;9.118;2023-06-22T13:55:42;7.83;;;5.80;;
8066;SDS011;4076;48.076;9.118;2023-06-22T13:58:07;6.80;;;5.93;;
8066;SDS011;4076;48.076;9.118;2023-06-22T14:00:33;6.60;;;5.13;;
8066;SDS011;4076;48.076;9.118;2023-06-22T14:02:58;10.03;;;4.83;;
8066;SDS011;4076;48.076;9.118;2023-06-22T14:05:24;6.23;;;5.37;;
8066;SDS011;4076;48.076;9.118;2023-06-22T14:07:50;7.00;;;4.03;;
8066;SDS011;4076;48.076;9.118;2023-06-22T14:10:15;7.73;;;5.07;;
8066;SDS011;4076;48.076;9.118;2023-06-22T14:12:41;5.93;;;4.80;;
8066;SDS011;4076;48.076;9.118;2023-06-22T14:15:06;5.40;;;3.83;;
8066;SDS011;4076;48.076;9.118;2023-06-22T14:17:32;7.57;;;4.53;;
8066;SDS011;4076;48.076;9.118;2023-06-22T14:19:58;9.53;;;4.90;;
8066;SDS011;4076;48.076;9.118;2023-06-22T14:22:23;8.23;;;4.40;;
8066;SDS011;4076;48.076;9.118;2023-06-22T14:24:49;5.07;;;4.57;;
8066;SDS011;4076;48.076;9.118;2023-06-22T14:27:15;4.67;;;4.17;;
8066;SDS011;4076;48.076;9.118;2023-06-22T14:29:41;11.60;;;5.13;;
8066;SDS011;4076;48.076;9.118;2023-06-22T14:32:07;10.60;;;5.77;;
8066;SDS011;4076;48.076;9.118;2023-06-22T14:34:33;7.33;;;4.13;;
8066;SDS011;4076;48.076;9.118;2023-06-22T14:37:01;7.93;;;4.83;;
8066;SDS011;4076;48.076;9.118;2023-06-22T14:39:27;5.87;;;4.00;;
8066;SDS011;4076;48.076;9.118;2023-06-22T14:41:52;6.60;;;3.90;;
8066;SDS011;4076;48.076;9.118;2023-06-22T14:44:18;6.00;;;4.70;;
8066;SDS011;4076;48.076;9.118;2023-06-22T14:46:44;5.50;;;3.67;;
8066;SDS011;4076;48.076;9.118;2023-06-22T14:49:09;4.70;;;3.60;;
8066;SDS011;4076;48.076;9.118;2023-06-22T14:51:35;7.70;;;4.40;;
8066;SDS011;4076;48.076;9.118;2023-06-22T14:54:00;3.97;;;3.57;;
8066;SDS011;4076;48.076;9.118;2023-06-22T14:56:26;3.40;;;3.00;;
8066;SDS011;4076;48.076;9.118;2023-06-22T14:58:51;4.63;;;3.57;;
8066;SDS011;4076;48.076;9.118;2023-06-22T15:01:17;6.03;;;4.63;;
8066;SDS011;4076;48.076;9.118;2023-06-22T15:03:43;5.80;;;4.17;;
8066;SDS011;4076;48.076;9.118;2023-06-22T15:06:09;5.47;;;3.77;;
8066;SDS011;4076;48.076;9.118;2023-06-22T15:08:36;5.57;;;4.57;;
8066;SDS011;4076;48.076;9.118;2023-06-22T15:11:03;5.50;;;3.30;;
8066;SDS011;4076;48.076;9.118;2023-06-22T15:13:32;5.33;;;4.50;;
8066;SDS011;4076;48.076;9.118;2023-06-22T15:16:00;7.17;;;3.90;;
8066;SDS011;4076;48.076;9.118;2023-06-22T15:18:26;8.40;;;4.20;;
8066;SDS011;4076;48.076;9.118;2023-06-22T15:20:52;5.27;;;3.47;;
8066;SDS011;4076;48.076;9.118;2023-06-22T15:23:18;3.97;;;3.13;;
8066;SDS011;4076;48.076;9.118;2023-06-22T15:25:43;3.40;;;3.10;;
8066;SDS011;4076;48.076;9.118;2023-06-22T15:28:10;5.13;;;3.53;;
8066;SDS011;4076;48.076;9.118;2023-06-22T15:30:36;4.20;;;3.30;;
8066;SDS011;4076;48.076;9.118;2023-06-22T15:33:02;4.40;;;2.60;;
8066;SDS011;4076;48.076;9.118;2023-06-22T15:35:28;3.60;;;2.80;;
8066;SDS011;4076;48.076;9.118;2023-06-22T15:37:53;5.83;;;4.00;;
8066;SDS011;4076;48.076;9.118;2023-06-22T15:40:19;5.30;;;3.10;;
8066;SDS011;4076;48.076;9.118;2023-06-22T15:42:44;5.23;;;3.73;;